Terminal Aerodrome Forecast
Issued by NWS

Home | Current Version | Previous Version | Graphics & Text | Print | Product List | Glossary On
Versions: 1 2 3 4 5 6 7 8 9 10 11 12 13 14 15 16 17 18 19 20 21 22 23 24 25 26 27 28 29 30 31 32 33 34 35 36 37 38 39 40
000
FTUS43 KPAH 270600 AAA
TAFOWB
TAF AMD
KOWB 270606Z 2706/2806 17004KT 3SM -FZDZ BR SCT004 OVC020
      TEMPO 2706/2709 OVC004
     FM270900 VRB02KT 3SM BR OVC015
     FM271500 36006KT P6SM BKN020
     FM280300 03005KT P6SM BKN030=

USA.gov is the U.S. government's official web portal to all federal, state and local government web resources and services.